Terminal Aerodrome Forecast
Issued by NWS Louisville, KY

Home | Current Version | Previous Version | Text Only | Print | Product List | Glossary On
Versions: 1 2 3 4 5 6 7 8 9 10 11 12 13 14 15 16 17
000
FTUS43 KLMK 222320
TAFBWG
TAF
KBWG 222320Z 2300/2324 VRB05KT P6SM SCT150
     FM231600 15008KT P6SM SCT120 BKN250
     FM232100 18012KT P6SM BKN100=

USA.gov is the U.S. government's official web portal to all federal, state and local government web resources and services.